Time;durP1;ratioP1;P1;durP2;ratioP2;P2;SDS_P1;SDS_P2;PMS_P1;PMS_P2;Temp;Humidity;BMP_temperature;BMP_pressure;BME280_temperature;BME280_humidity;BME280_pressure;Samples;Min_cycle;Max_cycle;Signal;HPM_P1;HPM_P2
2021/05/13 00:00:26;;;;;;;22.17;16.40;;;;;;;13.27;67.48;100624.75;5119473;27;20621;-66
2021/05/13 00:02:52;;;;;;;24.47;16.97;;;;;;;12.93;68.70;100640.56;5119305;28;20167;-65
2021/05/13 00:05:17;;;;;;;25.50;17.23;;;;;;;13.17;67.74;100641.38;5119683;28;20217;-65
2021/05/13 00:07:43;;;;;;;23.60;18.30;;;;;;;13.16;67.50;100642.25;5119229;28;20207;-66
2021/05/13 00:10:10;;;;;;;24.67;16.93;;;;;;;12.98;68.10;100644.91;5119163;28;20164;-66
2021/05/13 00:15:06;;;;;;;22.70;17.03;;;;;;;12.94;68.47;100648.41;5119183;28;20435;-66
2021/05/13 00:17:32;;;;;;;23.83;18.23;;;;;;;12.51;69.72;100652.78;5119288;28;20178;-65
2021/05/13 00:19:57;;;;;;;21.67;16.87;;;;;;;13.29;67.84;100642.22;5119729;28;20401;-65
2021/05/13 00:22:24;;;;;;;26.13;18.10;;;;;;;13.24;67.47;100649.19;5118852;28;20669;-66
2021/05/13 00:24:50;;;;;;;25.03;18.10;;;;;;;13.27;66.89;100645.69;5118887;28;20227;-66
2021/05/13 00:27:15;;;;;;;25.57;17.10;;;;;;;13.41;67.31;100648.31;5119481;28;20449;-66
2021/05/13 00:29:43;;;;;;;20.87;17.17;;;;;;;12.88;68.62;100651.03;5117464;28;20222;-66
2021/05/13 00:32:11;;;;;;;22.40;17.30;;;;;;;13.29;67.38;100638.72;5117455;28;20187;-67
2021/05/13 00:34:40;;;;;;;25.20;17.60;;;;;;;12.77;68.53;100640.59;5119235;28;20462;-67
2021/05/13 00:37:05;;;;;;;26.87;18.73;;;;;;;13.18;67.64;100636.16;5117854;28;20421;-65
2021/05/13 00:39:30;;;;;;;23.80;17.90;;;;;;;13.65;66.88;100626.38;5118684;28;20799;-65
2021/05/13 00:41:55;;;;;;;29.47;19.03;;;;;;;13.13;67.66;100625.66;5119105;28;20175;-65
2021/05/13 00:44:21;;;;;;;28.57;20.50;;;;;;;13.02;68.35;100617.00;5116562;28;20184;-66
2021/05/13 00:46:46;;;;;;;25.33;18.30;;;;;;;12.86;68.71;100615.28;5118642;28;20221;-66
2021/05/13 00:49:15;;;;;;;25.60;17.97;;;;;;;13.31;67.66;100616.91;5119314;28;20228;-66
2021/05/13 00:51:40;;;;;;;24.80;18.60;;;;;;;13.36;66.77;100616.91;5118055;28;20195;-65
2021/05/13 00:54:06;;;;;;;23.60;18.73;;;;;;;13.15;67.76;100623.03;5118537;28;20774;-67
2021/05/13 00:56:32;;;;;;;25.37;19.60;;;;;;;13.31;67.15;100613.41;5119219;28;20239;-65
2021/05/13 00:59:01;;;;;;;26.57;17.97;;;;;;;12.81;68.54;100604.81;5110009;28;20184;-64
2021/05/13 01:01:37;;;;;;;24.57;17.47;;;;;;;12.86;68.41;100615.28;5098261;28;20426;-65
2021/05/13 01:04:03;;;;;;;24.87;18.00;;;;;;;13.11;67.49;100619.59;5098203;28;20653;-65
2021/05/13 01:06:28;;;;;;;27.47;18.30;;;;;;;13.06;67.44;100623.09;5098165;28;20446;-65
2021/05/13 01:08:53;;;;;;;25.93;19.20;;;;;;;12.78;68.57;100621.38;5098313;28;20256;-65
2021/05/13 01:11:19;;;;;;;31.00;21.53;;;;;;;12.87;68.36;100628.34;5097359;28;20169;-67
2021/05/13 01:13:59;;;;;;;26.43;18.20;;;;;;;12.94;68.37;100621.38;5098376;28;20545;-64
2021/05/13 01:16:44;;;;;;;23.73;18.30;;;;;;;12.87;68.13;100625.75;5098075;28;20176;-66
2021/05/13 01:19:09;;;;;;;24.33;18.37;;;;;;;12.88;68.55;100621.38;5098090;28;20861;-66
2021/05/13 01:21:39;;;;;;;26.00;19.03;;;;;;;13.26;67.32;100623.91;5097995;28;20409;-66
2021/05/13 01:24:06;;;;;;;30.10;18.90;;;;;;;13.43;66.79;100612.53;5097838;28;20164;-65
2021/05/13 01:26:31;;;;;;;25.80;18.73;;;;;;;13.07;67.90;100616.97;5098258;28;20450;-65
2021/05/13 01:29:01;;;;;;;22.57;17.10;;;;;;;12.94;68.45;100621.38;5099330;28;20830;-65
2021/05/13 01:31:26;;;;;;;24.43;19.00;;;;;;;13.10;68.17;100615.22;5097938;28;20176;-66
2021/05/13 01:33:51;;;;;;;28.03;18.73;;;;;;;12.93;69.00;100609.16;5098439;28;20779;-66
2021/05/13 01:36:17;;;;;;;28.33;19.97;;;;;;;13.09;67.97;100612.59;5098077;28;20184;-66
2021/05/13 01:38:42;;;;;;;24.90;19.97;;;;;;;13.13;67.53;100604.72;5098008;28;20208;-66
2021/05/13 01:41:07;;;;;;;23.50;18.47;;;;;;;13.08;67.93;100597.78;5098161;28;20561;-66
2021/05/13 01:43:33;;;;;;;25.03;19.80;;;;;;;12.92;68.19;100610.03;5097860;28;20179;-66
2021/05/13 01:46:00;;;;;;;24.70;18.50;;;;;;;12.89;68.61;100612.66;5098179;28;20560;-66
2021/05/13 01:48:28;;;;;;;23.63;19.53;;;;;;;12.86;68.56;100608.28;5098191;28;20187;-65
2021/05/13 01:50:54;;;;;;;27.57;20.00;;;;;;;12.90;68.64;100607.41;5097658;28;20418;-66
2021/05/13 01:53:20;;;;;;;25.53;19.80;;;;;;;13.20;67.60;100604.72;5097746;28;20848;-66
2021/05/13 01:55:45;;;;;;;27.87;19.43;;;;;;;13.09;67.95;100600.38;5098044;28;20180;-66
2021/05/13 01:58:11;;;;;;;33.43;21.60;;;;;;;12.89;68.51;100602.19;5097674;28;20196;-66
2021/05/13 02:00:37;;;;;;;26.40;19.93;;;;;;;13.02;68.16;100611.75;5097483;28;20168;-66
2021/05/13 02:03:03;;;;;;;28.37;21.03;;;;;;;13.25;67.52;100608.19;5098149;28;20168;-66
2021/05/13 02:05:29;;;;;;;31.37;21.70;;;;;;;13.41;66.65;100594.19;5100134;28;20410;-66
2021/05/13 02:07:54;;;;;;;25.00;20.77;;;;;;;13.34;66.81;100595.09;5101502;28;20870;-65
2021/05/13 02:10:20;;;;;;;26.70;20.73;;;;;;;13.04;67.94;100601.28;5103955;28;20176;-66
2021/05/13 02:12:45;;;;;;;30.03;22.03;;;;;;;13.27;67.40;100595.97;5121451;28;20172;-66
2021/05/13 02:15:15;;;;;;;27.40;21.17;;;;;;;13.31;66.93;100595.97;5121609;28;20559;-66
2021/05/13 02:17:42;;;;;;;33.80;20.93;;;;;;;13.08;67.86;100608.25;5108427;28;20207;-65
2021/05/13 02:20:10;;;;;;;28.90;21.57;;;;;;;12.80;69.18;100603.94;5101316;28;20426;-65
2021/05/13 02:22:35;;;;;;;27.97;20.40;;;;;;;12.92;68.55;100612.63;5100812;28;20430;-65
2021/05/13 02:25:00;;;;;;;30.13;21.50;;;;;;;13.19;67.50;100613.44;5100714;28;20447;-65
2021/05/13 02:27:27;;;;;;;28.30;20.50;;;;;;;13.13;68.08;100604.72;5100792;28;20480;-65
2021/05/13 02:29:52;;;;;;;31.40;22.50;;;;;;;13.12;67.79;100603.00;5101012;28;20248;-66
2021/05/13 02:32:17;;;;;;;30.17;21.90;;;;;;;12.94;68.38;100608.28;5100678;28;20459;-66
2021/05/13 02:34:43;;;;;;;31.70;23.07;;;;;;;12.68;69.01;100603.09;5100729;28;20251;-66
2021/05/13 02:37:08;;;;;;;27.23;21.57;;;;;;;12.77;68.89;100603.06;5101095;28;20529;-65
2021/05/13 02:39:33;;;;;;;32.67;21.50;;;;;;;12.78;69.09;100600.44;5100839;28;20183;-66
2021/05/13 02:41:59;;;;;;;26.03;20.47;;;;;;;13.04;68.00;100596.91;5100557;28;20452;-65
2021/05/13 02:44:24;;;;;;;27.60;20.50;;;;;;;13.14;67.77;100596.00;5100903;28;20180;-65
2021/05/13 02:46:49;;;;;;;28.10;22.20;;;;;;;13.23;67.55;100586.38;5101697;28;20241;-65
2021/05/13 02:49:14;;;;;;;25.33;20.50;;;;;;;13.01;68.25;100590.81;5120907;28;20180;-66
2021/05/13 02:51:40;;;;;;;29.30;21.80;;;;;;;13.00;68.40;100579.47;5121109;28;20172;-66
2021/05/13 02:54:05;;;;;;;28.37;20.80;;;;;;;12.70;69.32;100585.66;5120663;28;20469;-66
2021/05/13 02:56:30;;;;;;;29.77;22.47;;;;;;;13.00;68.52;100579.47;5120902;28;20198;-66
2021/05/13 02:58:56;;;;;;;30.00;22.50;;;;;;;13.04;68.43;100570.72;5101671;27;20200;-66
2021/05/13 03:01:29;;;;;;;28.43;21.80;;;;;;;13.07;68.53;100573.38;5100135;28;20172;-66
2021/05/13 03:03:56;;;;;;;30.90;22.90;;;;;;;12.67;69.53;100565.59;5100207;28;20214;-66
2021/05/13 03:06:22;;;;;;;25.93;21.03;;;;;;;12.70;69.48;100565.59;5100051;28;20442;-65
2021/05/13 03:08:55;;;;;;;31.30;20.63;;;;;;;12.87;69.31;100567.31;5117380;28;20445;-65
2021/05/13 03:11:21;;;;;;;25.97;20.10;;;;;;;13.02;68.22;100569.88;5120750;28;20405;-65
2021/05/13 03:13:50;;;;;;;32.80;21.97;;;;;;;13.05;68.42;100576.84;5120375;28;20417;-66
2021/05/13 03:16:15;;;;;;;27.97;21.13;;;;;;;12.88;69.17;100564.69;5119809;28;20827;-66
2021/05/13 03:18:44;;;;;;;30.30;21.50;;;;;;;12.93;68.50;100560.31;5103878;27;20434;-65
2021/05/13 03:21:15;;;;;;;29.03;21.47;;;;;;;12.99;68.74;100556.81;5099740;28;20172;-64
2021/05/13 03:29:13;;;;;;;30.67;22.47;;;;;;;12.60;69.64;100553.44;5119997;28;20849;-65
2021/05/13 03:31:38;;;;;;;28.00;21.93;;;;;;;12.63;69.70;100550.78;5119765;28;20417;-65
2021/05/13 03:34:04;;;;;;;30.37;22.40;;;;;;;12.75;69.67;100542.91;5117104;28;20684;-65
2021/05/13 03:36:32;;;;;;;36.47;23.87;;;;;;;12.75;69.63;100545.53;5100004;28;20168;-65
2021/05/13 03:39:03;;;;;;;30.47;21.90;;;;;;;12.77;69.95;100550.75;5099366;28;20225;-65
2021/05/13 03:41:28;;;;;;;28.83;21.40;;;;;;;12.76;69.60;100547.28;5099223;28;20422;-65
2021/05/13 03:43:54;;;;;;;31.23;22.80;;;;;;;13.05;68.87;100543.69;5099765;28;20440;-65
2021/05/13 03:46:19;;;;;;;33.73;24.20;;;;;;;12.98;69.06;100544.59;5102910;28;20188;-64
2021/05/13 03:48:44;;;;;;;32.73;23.17;;;;;;;12.89;69.46;100542.00;5099241;28;20195;-66
2021/05/13 03:51:10;;;;;;;30.13;23.13;;;;;;;12.72;69.58;100544.66;5099673;28;20164;-65
2021/05/13 03:53:35;;;;;;;35.40;23.47;;;;;;;12.99;69.00;100543.72;5098995;28;20180;-66
2021/05/13 03:56:00;;;;;;;34.40;23.70;;;;;;;12.91;69.08;100551.59;5099450;28;20183;-64
2021/05/13 03:58:31;;;;;;;33.30;23.67;;;;;;;12.57;70.42;100550.78;5099495;28;20245;-66
2021/05/13 04:03:21;;;;;;;33.37;23.57;;;;;;;13.05;69.25;100551.53;5108539;28;20427;-66
2021/05/13 04:05:47;;;;;;;33.47;24.17;;;;;;;13.12;68.76;100536.69;5119833;28;20429;-65
2021/05/13 04:08:14;;;;;;;35.30;24.33;;;;;;;12.72;70.04;100544.66;5119122;28;20231;-66
2021/05/13 04:10:40;;;;;;;37.40;24.10;;;;;;;13.32;68.25;100539.22;5119170;28;20248;-65
2021/05/13 04:13:08;;;;;;;32.83;22.33;;;;;;;13.11;68.36;100533.22;5112162;28;20849;-66
2021/05/13 04:15:34;;;;;;;35.97;23.70;;;;;;;12.86;69.31;100528.94;5098731;28;20426;-65
2021/05/13 04:17:59;;;;;;;34.20;23.33;;;;;;;12.49;70.75;100529.91;5098308;28;20442;-66
2021/05/13 04:20:25;;;;;;;39.37;24.60;;;;;;;12.54;70.30;100527.28;5105361;28;20262;-66
2021/05/13 04:22:50;;;;;;;31.83;23.53;;;;;;;12.68;70.26;100517.66;5114732;28;20176;-66
2021/05/13 04:25:15;;;;;;;34.20;23.77;;;;;;;12.89;69.77;100518.47;5098165;28;20239;-66
2021/05/13 04:27:41;;;;;;;33.60;24.83;;;;;;;12.96;69.07;100512.31;5097911;28;20192;-65
2021/05/13 04:30:07;;;;;;;36.37;24.90;;;;;;;13.02;68.54;100509.69;5098492;28;20184;-65
2021/05/13 04:32:32;;;;;;;36.97;23.87;;;;;;;12.85;69.11;100508.88;5098742;28;20242;-65
2021/05/13 04:34:57;;;;;;;35.60;24.10;;;;;;;12.75;69.91;100505.44;5098746;28;20221;-65
2021/05/13 04:37:22;;;;;;;35.30;24.47;;;;;;;12.86;70.04;100506.25;5107463;28;20252;-66
2021/05/13 04:39:48;;;;;;;30.57;23.23;;;;;;;12.84;69.55;100505.41;5118571;28;20183;-65
2021/05/13 04:42:14;;;;;;;35.67;24.90;;;;;;;12.89;69.68;100497.53;5106233;28;20180;-65
2021/05/13 04:44:39;;;;;;;33.10;23.70;;;;;;;12.88;69.77;100501.00;5098212;28;20172;-65
2021/05/13 04:49:50;;;;;;;29.63;22.47;;;;;;;12.86;69.51;100492.31;5122690;28;20609;-65
2021/05/13 04:52:16;;;;;;;35.80;22.57;;;;;;;12.99;68.91;100494.00;5105580;28;20429;-66
2021/05/13 04:54:44;;;;;;;29.40;22.57;;;;;;;12.92;69.27;100485.31;5098405;28;20438;-65
2021/05/13 04:57:09;;;;;;;27.33;20.63;;;;;;;13.10;68.35;100496.59;5117222;28;20490;-66
2021/05/13 04:59:34;;;;;;;32.87;21.90;;;;;;;12.95;68.63;100487.06;5118800;28;20414;-66
2021/05/13 05:02:00;;;;;;;28.63;22.23;;;;;;;12.81;69.79;100492.31;5108320;28;20229;-66
2021/05/13 05:04:25;;;;;;;29.23;21.20;;;;;;;13.09;68.50;100482.59;5099131;28;20183;-66
2021/05/13 05:06:50;;;;;;;29.43;23.30;;;;;;;13.00;68.96;100482.66;5099218;28;20478;-65
2021/05/13 05:09:16;;;;;;;29.77;21.43;;;;;;;12.94;69.19;100477.47;5110023;28;20201;-65
2021/05/13 05:11:41;;;;;;;29.13;21.23;;;;;;;12.98;69.38;100477.44;5118424;28;20186;-66
2021/05/13 05:14:06;;;;;;;31.00;22.00;;;;;;;12.93;69.13;100479.19;5118548;28;20183;-66
2021/05/13 05:16:32;;;;;;;27.37;20.47;;;;;;;13.43;67.69;100465.88;5104588;28;20504;-66
2021/05/13 05:18:57;;;;;;;24.90;19.50;;;;;;;13.47;67.17;100472.84;5104012;28;20187;-65
2021/05/13 05:21:22;;;;;;;25.50;18.40;;;;;;;13.67;66.58;100472.69;5118357;28;20172;-64
2021/05/13 05:23:48;;;;;;;27.47;19.80;;;;;;;13.26;67.96;100465.94;5118730;28;20551;-65
2021/05/13 05:26:13;;;;;;;31.20;25.30;;;;;;;13.42;67.34;100475.50;5118308;28;20524;-65
2021/05/13 05:28:38;;;;;;;22.70;18.50;;;;;;;13.24;67.26;100470.31;5111433;28;20207;-66
2021/05/13 05:31:04;;;;;;;64.27;45.77;;;;;;;13.28;67.31;100472.06;5116042;28;20224;-66
2021/05/13 05:33:29;;;;;;;21.00;18.27;;;;;;;13.58;66.73;100470.13;5118485;28;20175;-66
2021/05/13 05:35:55;;;;;;;20.53;17.53;;;;;;;13.75;65.97;100460.41;5105464;28;20187;-65
2021/05/13 05:38:20;;;;;;;20.60;17.07;;;;;;;13.51;66.57;100464.06;5115148;28;20175;-65
2021/05/13 05:40:46;;;;;;;21.80;17.33;;;;;;;13.71;65.50;100458.69;5112373;28;20202;-65
2021/05/13 05:43:12;;;;;;;19.47;16.83;;;;;;;13.61;66.12;100468.38;5101985;27;20191;-64
2021/05/13 05:45:37;;;;;;;24.07;19.93;;;;;;;13.48;66.46;100457.09;5102076;28;20472;-65
2021/05/13 05:48:03;;;;;;;30.70;22.90;;;;;;;13.39;66.96;100457.16;5101570;28;20212;-65
2021/05/13 05:50:33;;;;;;;25.30;20.77;;;;;;;13.57;66.70;100455.28;5103079;28;20177;-63
2021/05/13 05:53:00;;;;;;;17.90;14.80;;;;;;;13.89;65.69;100449.81;5119393;28;20429;-64
2021/05/13 05:55:26;;;;;;;17.90;15.73;;;;;;;13.89;65.44;100454.19;5121001;28;20452;-65
2021/05/13 05:57:51;;;;;;;20.83;15.57;;;;;;;13.47;66.38;100450.13;5126961;27;20409;-66
2021/05/13 06:00:17;;;;;;;18.37;15.27;;;;;;;13.29;67.22;100447.63;5127861;27;20167;-64
2021/05/13 06:02:44;;;;;;;24.00;17.87;;;;;;;13.50;66.61;100451.00;5108276;28;20202;-65
2021/05/13 06:05:10;;;;;;;17.50;15.50;;;;;;;13.45;66.47;100441.44;5121424;28;20425;-66
2021/05/13 06:07:35;;;;;;;18.20;14.60;;;;;;;13.56;65.97;100449.19;5115590;28;20457;-64
2021/05/13 06:10:02;;;;;;;18.57;15.60;;;;;;;13.55;66.12;100447.47;5110806;28;20180;-67
2021/05/13 06:12:27;;;;;;;35.40;27.47;;;;;;;13.61;66.10;100443.91;5101060;28;20171;-66
2021/05/13 06:14:53;;;;;;;23.00;17.13;;;;;;;13.88;65.08;100447.19;5101956;28;20449;-65
2021/05/13 06:17:18;;;;;;;18.80;15.63;;;;;;;13.65;65.70;100437.78;5101958;28;20192;-65
2021/05/13 06:19:44;;;;;;;22.03;16.57;;;;;;;12.92;67.41;100448.69;5137651;27;20183;-64
2021/05/13 06:22:09;;;;;;;20.47;15.97;;;;;;;12.95;68.03;100439.97;5132284;27;20183;-65
2021/05/13 06:24:34;;;;;;;22.67;17.13;;;;;;;12.71;68.68;100440.94;5118635;28;20231;-66
2021/05/13 06:27:02;;;;;;;20.63;16.60;;;;;;;12.97;68.24;100441.69;5120884;28;20629;-66
2021/05/13 06:29:28;;;;;;;23.03;16.77;;;;;;;13.23;67.04;100439.78;5121414;28;20172;-65
2021/05/13 06:31:57;;;;;;;22.23;16.73;;;;;;;13.72;66.03;100438.59;5120942;28;20488;-65
2021/05/13 06:34:23;;;;;;;22.63;17.10;;;;;;;13.42;66.45;100437.94;5115435;27;20446;-66
2021/05/13 06:36:49;;;;;;;21.40;16.03;;;;;;;13.84;65.75;100432.38;5102369;28;20414;-66
2021/05/13 06:39:15;;;;;;;20.07;15.93;;;;;;;13.72;65.63;100438.59;5107993;28;20535;-66
2021/05/13 06:41:42;;;;;;;22.40;16.57;;;;;;;13.51;66.68;100435.28;5101115;28;20827;-66
2021/05/13 06:44:08;;;;;;;20.30;16.57;;;;;;;13.75;65.43;100438.59;5105048;28;20233;-65
2021/05/13 06:46:33;;;;;;;19.70;15.67;;;;;;;13.64;65.61;100436.91;5105046;28;20426;-66
2021/05/13 06:48:58;;;;;;;20.13;15.73;;;;;;;13.35;66.29;100434.47;5108208;28;20752;-66
2021/05/13 06:51:24;;;;;;;20.53;16.27;;;;;;;13.68;65.80;100434.25;5108281;27;20279;-66
2021/05/13 06:53:49;;;;;;;19.53;15.50;;;;;;;13.86;65.33;100439.34;5133592;27;20569;-66
2021/05/13 06:56:15;;;;;;;20.80;16.63;;;;;;;13.44;66.20;100430.97;5100298;28;20172;-66
2021/05/13 06:58:41;;;;;;;18.93;15.23;;;;;;;13.54;65.88;100435.25;5100002;28;20217;-66
2021/05/13 07:01:06;;;;;;;20.10;15.77;;;;;;;13.92;64.97;100430.56;5116761;28;20441;-66
2021/05/13 07:03:31;;;;;;;18.63;15.63;;;;;;;14.02;64.59;100432.22;5119532;27;20186;-66
2021/05/13 07:05:57;;;;;;;20.90;17.60;;;;;;;14.01;64.46;100427.00;5120585;28;20190;-66
2021/05/13 07:08:22;;;;;;;21.80;15.57;;;;;;;13.88;65.14;100428.84;5119362;28;20215;-65
2021/05/13 07:10:48;;;;;;;19.53;15.77;;;;;;;13.72;65.40;100429.00;5103892;28;20227;-65
2021/05/13 07:13:13;;;;;;;20.10;15.00;;;;;;;14.30;64.31;100429.31;5100433;28;20549;-68
2021/05/13 07:15:38;;;;;;;19.20;16.13;;;;;;;14.22;63.89;100423.28;5106639;28;20489;-67
2021/05/13 07:18:04;;;;;;;19.63;15.30;;;;;;;13.84;65.17;100422.75;5120088;28;20172;-66
2021/05/13 07:20:31;;;;;;;21.00;15.83;;;;;;;14.05;64.55;100428.72;5105484;27;20210;-67
2021/05/13 07:22:57;;;;;;;21.23;17.27;;;;;;;14.37;63.38;100422.25;5108869;28;20187;-68
2021/05/13 07:25:23;;;;;;;21.77;16.07;;;;;;;14.28;63.56;100415.38;5119032;27;20498;-67
2021/05/13 07:27:49;;;;;;;23.40;15.67;;;;;;;13.77;65.65;100414.13;5121342;27;20433;-67
2021/05/13 07:30:15;;;;;;;21.10;15.33;;;;;;;14.21;64.01;100418.94;5102624;28;20596;-67
2021/05/13 07:32:40;;;;;;;19.10;14.10;;;;;;;13.95;64.66;100423.56;5119592;28;20508;-67
2021/05/13 07:35:06;;;;;;;18.07;13.90;;;;;;;14.11;64.11;100421.66;5118263;28;20482;-66
2021/05/13 07:37:32;;;;;;;20.43;15.60;;;;;;;14.00;64.66;100425.25;5119631;28;20164;-67
2021/05/13 07:39:57;;;;;;;17.40;13.93;;;;;;;14.14;64.17;100426.00;5112288;28;20505;-67
2021/05/13 07:42:23;;;;;;;16.20;13.40;;;;;;;13.87;65.85;100432.34;5100393;28;20202;-69
2021/05/13 07:44:48;;;;;;;17.10;14.20;;;;;;;13.44;66.72;100421.34;5099301;28;20180;-68
2021/05/13 07:47:13;;;;;;;17.27;13.73;;;;;;;13.33;67.20;100425.78;5117454;28;20226;-67
2021/05/13 07:49:39;;;;;;;17.20;13.83;;;;;;;13.96;64.96;100432.28;5119735;28;20192;-67
2021/05/13 07:52:04;;;;;;;14.93;12.30;;;;;;;13.80;65.07;100426.28;5106347;28;20594;-67
2021/05/13 07:54:30;;;;;;;14.90;11.60;;;;;;;13.71;65.51;100429.88;5117307;28;20207;-68
2021/05/13 07:56:55;;;;;;;15.53;11.50;;;;;;;13.79;65.17;100432.44;5104606;28;20180;-66
2021/05/13 07:59:20;;;;;;;13.53;11.80;;;;;;;14.21;63.74;100435.53;5106925;28;20241;-66
2021/05/13 08:01:46;;;;;;;14.80;12.07;;;;;;;14.54;62.79;100435.19;5119141;28;20175;-66
2021/05/13 08:04:11;;;;;;;13.67;12.27;;;;;;;14.40;63.66;100430.09;5104476;28;20184;-65
2021/05/13 08:06:36;;;;;;;14.23;11.40;;;;;;;14.34;63.28;100432.78;5108979;28;20183;-64
2021/05/13 08:09:02;;;;;;;14.37;12.73;;;;;;;14.28;63.36;100429.34;5103968;28;20497;-64
2021/05/13 08:11:27;;;;;;;13.23;11.80;;;;;;;14.78;61.82;100428.81;5098740;28;20250;-66
2021/05/13 08:13:53;;;;;;;13.27;11.53;;;;;;;14.49;62.54;100428.22;5104136;28;20419;-66
2021/05/13 08:16:18;;;;;;;14.27;11.70;;;;;;;14.36;63.36;100431.03;5115176;28;20203;-65
2021/05/13 08:18:43;;;;;;;15.83;13.27;;;;;;;14.84;62.01;100422.59;5115782;28;20171;-66
2021/05/13 08:21:09;;;;;;;14.33;11.10;;;;;;;14.47;62.95;100421.28;5118635;28;20224;-67
2021/05/13 08:23:34;;;;;;;13.00;11.43;;;;;;;14.38;63.70;100427.47;5118722;28;20203;-66
2021/05/13 08:25:59;;;;;;;14.60;11.90;;;;;;;14.15;64.33;100428.59;5121487;27;20234;-66
2021/05/13 08:28:25;;;;;;;14.03;12.60;;;;;;;14.21;63.71;100419.81;5101115;28;20295;-66
2021/05/13 08:30:50;;;;;;;20.80;16.77;;;;;;;14.70;62.45;100415.78;5098313;28;20168;-66
2021/05/13 08:33:15;;;;;;;13.90;12.37;;;;;;;14.70;62.91;100418.41;5098095;28;20174;-66
2021/05/13 08:35:41;;;;;;;16.87;12.63;;;;;;;14.38;63.78;100416.13;5102334;28;20191;-67
2021/05/13 08:38:06;;;;;;;15.47;12.60;;;;;;;14.22;64.58;100410.16;5106736;28;20514;-66
2021/05/13 08:40:32;;;;;;;13.03;11.73;;;;;;;14.62;63.26;100420.22;5097955;28;20172;-66
2021/05/13 08:42:57;;;;;;;12.97;11.57;;;;;;;14.43;64.53;100415.19;5098321;28;20529;-66
2021/05/13 08:45:22;;;;;;;14.40;12.63;;;;;;;14.65;64.18;100422.81;5118621;28;20567;-65
2021/05/13 08:47:48;;;;;;;15.37;12.30;;;;;;;14.28;64.72;100417.97;5110791;28;20505;-66
2021/05/13 08:50:15;;;;;;;14.47;11.37;;;;;;;13.96;65.23;100419.16;5107046;28;20475;-65
2021/05/13 08:52:40;;;;;;;17.53;11.43;;;;;;;14.08;65.55;100420.81;5117859;28;20254;-66
2021/05/13 08:55:07;;;;;;;15.53;12.87;;;;;;;14.12;65.95;100406.78;5114964;28;20548;-65
2021/05/13 08:57:32;;;;;;;16.53;12.67;;;;;;;14.38;64.81;100414.34;5105265;28;20192;-66
2021/05/13 08:59:58;;;;;;;14.67;12.60;;;;;;;14.37;65.27;100403.88;5115236;28;20661;-66
2021/05/13 09:02:27;;;;;;;20.13;14.27;;;;;;;14.72;65.05;100400.88;5114977;28;20233;-66
2021/05/13 09:04:54;;;;;;;12.53;11.20;;;;;;;14.95;63.84;100390.06;5098434;28;20184;-67
2021/05/13 09:07:30;;;;;;;12.03;10.90;;;;;;;15.31;63.20;100402.69;5098012;28;20483;-68
2021/05/13 09:10:02;;;;;;;13.80;11.87;;;;;;;15.30;63.62;100400.94;5103627;28;20498;-67
2021/05/13 09:12:31;;;;;;;13.50;12.00;;;;;;;15.52;62.49;100390.97;5115486;28;20712;-66
2021/05/13 09:15:03;;;;;;;11.50;10.30;;;;;;;15.25;63.05;100397.50;5110769;28;20445;-65
2021/05/13 09:17:29;;;;;;;12.93;11.63;;;;;;;15.62;62.28;100394.31;5101023;28;20414;-66
2021/05/13 09:19:55;;;;;;;13.43;11.93;;;;;;;15.71;61.95;100386.28;5101843;28;20426;-65
2021/05/13 09:22:23;;;;;;;10.67;9.60;;;;;;;15.89;62.58;100390.38;5101499;28;20437;-66
2021/05/13 09:25:00;;;;;;;10.63;9.47;;;;;;;15.36;61.97;100394.72;5104372;28;20543;-65
2021/05/13 09:27:36;;;;;;;14.07;10.50;;;;;;;15.23;62.49;100399.31;5141428;27;20487;-65
2021/05/13 09:30:16;;;;;;;13.53;11.03;;;;;;;15.00;63.76;100392.63;5136310;27;20573;-65
2021/05/13 09:32:44;;;;;;;11.70;10.50;;;;;;;15.48;61.79;100392.78;5121807;28;20507;-66
2021/05/13 09:35:15;;;;;;;13.63;10.17;;;;;;;15.57;61.88;100389.13;5108146;28;20420;-66
2021/05/13 09:37:43;;;;;;;12.80;11.47;;;;;;;15.61;61.64;100390.81;5101608;28;20431;-66
2021/05/13 09:40:09;;;;;;;24.60;20.57;;;;;;;16.23;60.56;100388.88;5117139;28;20462;-65
2021/05/13 09:42:35;;;;;;;12.07;10.87;;;;;;;15.80;62.21;100399.28;5114734;28;20441;-66
2021/05/13 09:45:00;;;;;;;32.80;27.23;;;;;;;15.94;61.86;100398.16;5110705;28;20414;-66
2021/05/13 09:47:27;;;;;;;10.30;9.40;;;;;;;15.44;62.67;100403.38;5101272;28;20206;-66
2021/05/13 09:50:01;;;;;;;10.67;9.67;;;;;;;15.70;62.40;100392.41;5117530;28;20183;-65
2021/05/13 09:52:43;;;;;;;10.73;9.63;;;;;;;15.92;61.66;100387.66;5120489;28;20441;-66
2021/05/13 09:55:18;;;;;;;11.70;10.20;;;;;;;15.71;61.90;100390.63;5116468;28;20507;-67
2021/05/13 09:57:52;;;;;;;12.40;10.77;;;;;;;15.58;62.46;100379.50;5104488;28;20439;-66
2021/05/13 10:00:47;;;;;;;10.47;8.80;;;;;;;15.53;63.71;100381.31;5119922;28;20419;-66
2021/05/13 10:03:15;;;;;;;10.60;9.47;;;;;;;15.31;63.85;100387.78;5109641;28;20426;-66
2021/05/13 10:05:45;;;;;;;9.97;9.03;;;;;;;15.66;62.10;100382.84;5100883;28;20436;-67
2021/05/13 10:08:11;;;;;;;9.83;8.93;;;;;;;15.16;63.66;100383.63;5100468;28;20747;-66
2021/05/13 10:10:37;;;;;;;11.40;10.40;;;;;;;15.63;63.40;100375.88;5101260;28;20425;-67
2021/05/13 10:13:05;;;;;;;15.23;11.27;;;;;;;15.90;62.47;100373.69;5101430;28;20439;-67
2021/05/13 10:15:30;;;;;;;10.07;9.07;;;;;;;15.88;62.43;100375.47;5119470;28;20464;-67
2021/05/13 10:17:57;;;;;;;10.00;9.00;;;;;;;15.83;62.65;100377.34;5102090;28;20506;-68
2021/05/13 10:20:25;;;;;;;9.90;9.00;;;;;;;15.62;63.24;100381.16;5101262;28;20233;-66
2021/05/13 10:22:50;;;;;;;11.77;9.30;;;;;;;15.29;63.69;100386.94;5100349;28;20429;-66
2021/05/13 10:25:26;;;;;;;11.67;10.47;;;;;;;15.54;63.25;100383.06;5099130;27;20534;-67
2021/05/13 10:27:56;;;;;;;13.77;10.33;;;;;;;15.88;61.99;100382.50;5139520;27;20198;-67
2021/05/13 10:30:23;;;;;;;10.17;8.47;;;;;;;15.63;62.21;100388.16;5111069;27;20416;-66
2021/05/13 10:33:08;;;;;;;10.60;9.60;;;;;;;15.61;62.59;100387.31;5098789;28;20798;-67
2021/05/13 10:35:33;;;;;;;10.07;9.10;;;;;;;15.95;61.60;100378.84;5100448;28;20405;-67
2021/05/13 10:38:01;;;;;;;12.57;10.30;;;;;;;15.79;62.55;100381.75;5118838;28;20429;-66
2021/05/13 10:40:48;;;;;;;11.93;9.70;;;;;;;15.72;62.39;100380.13;5118962;27;20168;-67
2021/05/13 10:43:13;;;;;;;9.63;8.63;;;;;;;15.79;62.03;100378.22;5108407;28;20437;-65
2021/05/13 10:45:43;;;;;;;10.77;9.53;;;;;;;15.47;62.48;100380.53;5109032;28;20438;-66
2021/05/13 10:48:19;;;;;;;9.90;8.37;;;;;;;15.68;61.94;100372.31;5101570;28;20487;-65
2021/05/13 10:50:51;;;;;;;10.13;9.00;;;;;;;16.13;61.87;100378.53;5100373;28;20486;-66
2021/05/13 10:53:47;;;;;;;14.33;9.73;;;;;;;15.47;61.86;100383.16;5099877;28;20702;-66
2021/05/13 10:56:28;;;;;;;9.50;8.43;;;;;;;15.54;61.82;100376.03;5100660;28;20511;-65
2021/05/13 10:59:01;;;;;;;8.90;7.73;;;;;;;15.77;61.12;100375.63;5099484;28;20458;-67
2021/05/13 11:01:42;;;;;;;8.30;7.60;;;;;;;15.76;61.51;100379.19;5114393;28;20425;-66
2021/05/13 11:04:23;;;;;;;9.17;8.27;;;;;;;15.78;62.38;100380.00;5106163;28;20461;-67
2021/05/13 11:06:56;;;;;;;10.13;9.00;;;;;;;16.02;61.12;100382.25;5102915;28;20460;-66
2021/05/13 11:09:40;;;;;;;10.67;8.93;;;;;;;15.66;63.08;100377.59;5120035;28;20414;-66
2021/05/13 11:12:12;;;;;;;9.93;9.03;;;;;;;15.77;62.30;100382.66;5104491;28;20699;-66
2021/05/13 11:15:05;;;;;;;9.40;8.40;;;;;;;16.28;61.34;100381.75;5099488;28;20444;-65
2021/05/13 11:20:41;;;;;;;10.67;9.57;;;;;;;16.48;60.71;100373.44;5098879;28;20396;-65
2021/05/13 11:23:12;;;;;;;9.13;8.33;;;;;;;16.16;61.79;100378.47;5098021;28;20718;-66
2021/05/13 11:25:44;;;;;;;8.10;7.30;;;;;;;15.82;61.17;100375.59;5100652;28;20710;-66
2021/05/13 11:28:28;;;;;;;8.80;8.00;;;;;;;16.12;61.41;100371.53;5098758;28;20846;-65